Time;durP1;ratioP1;P1;durP2;ratioP2;P2;SDS_P1;SDS_P2;PMS_P1;PMS_P2;Temp;Humidity;BMP_temperature;BMP_pressure;BME280_temperature;BME280_humidity;BME280_pressure;Samples;Min_cycle;Max_cycle;Signal;HPM_P1;HPM_P2
2022/11/15 00:01:22;;;;;;;16.70;12.57;;;11.40;99.90;;;;;;4942877;28;20232;-67
2022/11/15 00:03:51;;;;;;;13.67;12.13;;;11.40;99.90;;;;;;4944659;28;20709;-67
2022/11/15 00:06:16;;;;;;;15.13;12.30;;;11.40;99.90;;;;;;4945704;28;20196;-69
2022/11/15 00:08:42;;;;;;;18.40;13.10;;;11.40;99.90;;;;;;4943824;28;20438;-68
2022/11/15 00:11:10;;;;;;;16.97;12.27;;;11.40;99.90;;;;;;4949045;28;20242;-68
2022/11/15 00:13:36;;;;;;;14.33;12.40;;;11.30;99.90;;;;;;4943659;28;20195;-68
2022/11/15 00:16:02;;;;;;;16.50;12.00;;;11.40;99.90;;;;;;4944187;28;20442;-67
2022/11/15 00:18:28;;;;;;;14.93;12.50;;;11.40;99.90;;;;;;4944975;28;20281;-69
2022/11/15 00:20:54;;;;;;;15.10;12.50;;;11.40;99.90;;;;;;4949334;28;20478;-68
2022/11/15 00:23:19;;;;;;;17.10;11.90;;;11.40;99.90;;;;;;4948421;28;20622;-69
2022/11/15 00:25:45;;;;;;;17.33;11.70;;;11.40;99.90;;;;;;4946867;28;20246;-69
2022/11/15 00:28:11;;;;;;;18.27;11.87;;;11.40;99.90;;;;;;4949064;28;20660;-69
2022/11/15 00:30:37;;;;;;;11.67;9.63;;;11.40;99.90;;;;;;4947921;28;20585;-69
2022/11/15 00:33:04;;;;;;;14.10;11.67;;;11.40;99.90;;;;;;4951447;28;20447;-67
2022/11/15 00:35:34;;;;;;;14.57;11.20;;;11.40;99.90;;;;;;4944923;28;20197;-68
2022/11/15 00:38:01;;;;;;;13.07;10.97;;;11.40;99.90;;;;;;4950101;28;20974;-67
2022/11/15 00:40:27;;;;;;;15.50;11.00;;;11.40;99.90;;;;;;4950055;28;21011;-67
2022/11/15 00:42:52;;;;;;;15.60;10.87;;;11.40;99.90;;;;;;4951127;28;20501;-67
2022/11/15 00:45:18;;;;;;;13.83;10.90;;;11.40;99.90;;;;;;4949946;28;20187;-67
2022/11/15 00:47:47;;;;;;;13.70;10.80;;;11.40;99.90;;;;;;4949588;28;20192;-67
2022/11/15 00:50:13;;;;;;;15.50;10.73;;;11.40;99.90;;;;;;4951325;28;20642;-67
2022/11/15 00:52:39;;;;;;;14.00;11.23;;;11.40;99.90;;;;;;4949451;28;20849;-67
2022/11/15 00:55:05;;;;;;;18.37;11.47;;;11.40;99.90;;;;;;4950885;28;20443;-68
2022/11/15 00:57:30;;;;;;;16.27;11.23;;;11.40;99.90;;;;;;4949973;28;20329;-67
2022/11/15 00:59:56;;;;;;;12.23;10.93;;;11.40;99.90;;;;;;4951074;28;20247;-67
2022/11/15 01:02:22;;;;;;;13.73;11.40;;;11.40;99.90;;;;;;4950987;28;20695;-67
2022/11/15 01:05:19;;;;;;;14.03;10.30;;;11.50;99.90;;;;;;4946376;28;20619;-69
2022/11/15 01:07:45;;;;;;;15.73;10.03;;;11.50;99.90;;;;;;4959247;28;20207;-69
2022/11/15 01:10:11;;;;;;;15.20;10.90;;;11.50;99.90;;;;;;4945975;28;20435;-67
2022/11/15 01:12:39;;;;;;;14.80;10.53;;;11.50;99.90;;;;;;4948295;28;20221;-67
2022/11/15 01:15:05;;;;;;;12.80;10.73;;;11.50;99.90;;;;;;4947547;28;20705;-68
2022/11/15 01:17:31;;;;;;;13.83;11.23;;;11.50;99.90;;;;;;4948230;28;20481;-69
2022/11/15 01:19:57;;;;;;;13.80;9.67;;;11.50;99.90;;;;;;4950114;28;20511;-67
2022/11/15 01:22:23;;;;;;;13.20;10.23;;;11.50;99.90;;;;;;4952036;28;20222;-68
2022/11/15 01:24:51;;;;;;;12.77;9.70;;;11.60;99.90;;;;;;4947451;28;20774;-67
2022/11/15 01:27:17;;;;;;;12.23;10.20;;;11.60;99.90;;;;;;4947044;28;20190;-68
2022/11/15 01:29:43;;;;;;;11.53;10.20;;;11.60;99.90;;;;;;4950576;28;20783;-67
2022/11/15 01:32:08;;;;;;;11.50;10.30;;;11.60;99.90;;;;;;4945680;28;20215;-68
2022/11/15 01:34:34;;;;;;;14.27;10.90;;;11.60;99.90;;;;;;4948976;28;20599;-69
2022/11/15 01:37:00;;;;;;;14.17;10.87;;;11.60;99.90;;;;;;4947989;28;20618;-67
2022/11/15 01:39:26;;;;;;;16.90;10.73;;;11.60;99.90;;;;;;4943297;28;20210;-69
2022/11/15 01:41:52;;;;;;;10.53;9.20;;;11.60;99.90;;;;;;4943866;28;20947;-66
2022/11/15 01:44:42;;;;;;;13.00;8.90;;;11.60;99.90;;;;;;4953899;28;20526;-67
2022/11/15 01:47:22;;;;;;;14.93;10.37;;;11.60;99.90;;;;;;4942394;28;20255;-67
2022/11/15 01:50:02;;;;;;;11.00;9.00;;;11.60;99.90;;;;;;4945908;28;20802;-67
2022/11/15 01:52:30;;;;;;;11.73;8.63;;;11.60;99.90;;;;;;4953369;28;20469;-67
2022/11/15 01:55:17;;;;;;;10.90;7.80;;;11.70;99.90;;;;;;4944556;28;20435;-69
2022/11/15 01:57:45;;;;;;;12.40;8.93;;;11.70;99.90;;;;;;4948018;28;20447;-68
2022/11/15 02:00:12;;;;;;;11.50;9.13;;;11.70;99.90;;;;;;4944576;28;20466;-68
2022/11/15 02:02:39;;;;;;;11.70;7.93;;;11.70;99.90;;;;;;4948182;28;20622;-66
2022/11/15 02:05:04;;;;;;;13.43;8.97;;;11.70;99.90;;;;;;4947000;28;20460;-68
2022/11/15 02:07:31;;;;;;;11.73;8.83;;;11.70;99.90;;;;;;4946983;28;20454;-68
2022/11/15 02:10:09;;;;;;;13.60;8.97;;;11.80;99.90;;;;;;4949742;28;20270;-68
2022/11/15 02:12:35;;;;;;;11.30;8.27;;;11.80;99.90;;;;;;4942911;28;20452;-66
2022/11/15 02:15:02;;;;;;;13.47;8.47;;;11.80;99.90;;;;;;4946972;28;20447;-68
2022/11/15 02:18:07;;;;;;;14.63;9.03;;;11.80;99.90;;;;;;4946516;28;20431;-69
2022/11/15 02:20:57;;;;;;;11.80;8.87;;;11.80;99.90;;;;;;4946330;28;20807;-68
2022/11/15 02:23:51;;;;;;;10.43;8.67;;;11.80;99.90;;;;;;4949887;28;20420;-68
2022/11/15 02:26:50;;;;;;;10.17;8.03;;;11.80;99.90;;;;;;4945593;28;20561;-67
2022/11/15 02:29:39;;;;;;;12.43;8.57;;;11.80;99.90;;;;;;4947946;28;20946;-69
2022/11/15 02:32:24;;;;;;;9.73;6.80;;;11.80;99.90;;;;;;4947911;28;20436;-67
2022/11/15 02:35:20;;;;;;;9.93;7.43;;;11.80;99.90;;;;;;4947967;28;20997;-68
2022/11/15 02:37:57;;;;;;;11.53;9.30;;;11.80;99.90;;;;;;4951755;28;20433;-68
2022/11/15 02:40:28;;;;;;;10.13;8.20;;;11.70;99.90;;;;;;4948613;28;20520;-67
2022/11/15 02:45:48;;;;;;;11.67;8.50;;;11.70;99.90;;;;;;4951370;28;20507;-69
2022/11/15 02:48:16;;;;;;;9.63;7.60;;;11.70;99.90;;;;;;4942884;28;20879;-69
2022/11/15 02:50:42;;;;;;;9.20;7.80;;;11.70;99.90;;;;;;4950141;28;20503;-68
2022/11/15 02:53:09;;;;;;;10.30;7.63;;;11.70;99.90;;;;;;4946806;28;20453;-68
2022/11/15 02:55:38;;;;;;;9.77;7.27;;;11.70;99.90;;;;;;4948960;28;20440;-68
2022/11/15 02:58:47;;;;;;;10.77;9.10;;;11.70;99.90;;;;;;4949486;28;20784;-69
2022/11/15 03:01:33;;;;;;;7.67;6.87;;;11.80;99.90;;;;;;4945753;28;20996;-68
2022/11/15 03:04:16;;;;;;;8.90;7.37;;;11.80;99.90;;;;;;4946323;28;20449;-68
2022/11/15 03:06:57;;;;;;;9.40;7.43;;;11.80;99.90;;;;;;4946688;28;20437;-68
2022/11/15 03:09:33;;;;;;;10.50;6.80;;;11.80;99.90;;;;;;4946838;28;20524;-68
2022/11/15 03:12:43;;;;;;;9.80;6.67;;;11.80;99.90;;;;;;4949177;28;20477;-68
2022/11/15 03:15:29;;;;;;;10.90;6.70;;;11.80;99.90;;;;;;4949557;28;20438;-67
2022/11/15 03:18:30;;;;;;;9.10;6.80;;;11.80;99.90;;;;;;4948059;28;20450;-69
2022/11/15 03:20:57;;;;;;;8.20;6.80;;;11.80;99.90;;;;;;4954507;28;20533;-68
2022/11/15 03:23:24;;;;;;;8.07;6.43;;;11.90;99.90;;;;;;4944601;28;20446;-67
2022/11/15 03:25:51;;;;;;;12.53;6.50;;;11.90;99.90;;;;;;4943574;28;21258;-68
2022/11/15 03:28:29;;;;;;;9.03;7.10;;;11.90;99.90;;;;;;4946867;28;20709;-68
2022/11/15 03:30:56;;;;;;;8.13;6.90;;;11.90;99.90;;;;;;4945422;28;20890;-69
2022/11/15 03:33:22;;;;;;;6.70;6.00;;;11.90;99.90;;;;;;4947482;28;20434;-69
2022/11/15 03:35:49;;;;;;;8.90;6.87;;;11.90;99.90;;;;;;4949180;28;20431;-68
2022/11/15 03:38:23;;;;;;;8.13;6.00;;;11.90;99.90;;;;;;4947352;28;20485;-68
2022/11/15 03:40:57;;;;;;;7.50;6.07;;;11.90;99.90;;;;;;4939703;28;21002;-68
2022/11/15 03:43:39;;;;;;;8.50;6.23;;;11.90;99.90;;;;;;4948596;28;20450;-68
2022/11/15 03:46:14;;;;;;;7.23;6.20;;;11.90;99.90;;;;;;4943837;28;20454;-68
2022/11/15 03:48:54;;;;;;;6.90;5.53;;;11.90;99.90;;;;;;4948380;28;20446;-68
2022/11/15 03:51:20;;;;;;;7.50;5.83;;;12.00;99.90;;;;;;4950779;28;20447;-68
2022/11/15 03:53:46;;;;;;;8.50;6.20;;;12.00;99.90;;;;;;4948482;28;20435;-68
2022/11/15 03:56:11;;;;;;;7.67;6.23;;;12.00;99.90;;;;;;4949182;28;20601;-68
2022/11/15 03:58:37;;;;;;;7.50;6.00;;;12.00;99.90;;;;;;4942715;28;20191;-68
2022/11/15 04:01:03;;;;;;;7.63;6.03;;;12.00;99.90;;;;;;4947003;28;20242;-68
2022/11/15 04:03:28;;;;;;;8.57;6.07;;;12.00;99.90;;;;;;4945038;28;20232;-67
2022/11/15 04:05:54;;;;;;;7.03;5.60;;;12.00;99.90;;;;;;4945816;28;20304;-68
2022/11/15 04:08:19;;;;;;;7.57;6.23;;;12.00;99.90;;;;;;4946129;28;20643;-68
2022/11/15 04:10:48;;;;;;;6.10;5.23;;;12.00;99.90;;;;;;4947545;28;20218;-68
2022/11/15 04:13:16;;;;;;;10.50;6.00;;;12.10;99.90;;;;;;4943547;28;20577;-68
2022/11/15 04:15:42;;;;;;;7.63;6.30;;;12.00;99.90;;;;;;4945669;28;20796;-68
2022/11/15 04:18:07;;;;;;;9.17;6.43;;;12.00;99.90;;;;;;4951467;28;21029;-67
2022/11/15 04:26:11;;;;;;;8.93;7.60;;;12.00;99.90;;;;;;4944996;28;20467;-68
2022/11/15 04:29:33;;;;;;;7.27;6.10;;;12.00;99.90;;;;;;4944622;28;20438;-68
2022/11/15 04:31:22;;;;;;;8.87;6.77;;;12.00;99.90;;;;;;4948722;28;20454;-68
2022/11/15 04:33:48;;;;;;;13.10;6.23;;;12.10;99.90;;;;;;4940849;28;20454;-67
2022/11/15 04:38:58;;;;;;;9.17;7.13;;;12.10;99.90;;;;;;4943495;28;20255;-68
2022/11/15 04:41:23;;;;;;;11.90;8.23;;;12.00;99.90;;;;;;4938100;28;20791;-68
2022/11/15 04:43:49;;;;;;;10.20;7.43;;;12.00;99.90;;;;;;4956785;28;20194;-68
2022/11/15 04:46:14;;;;;;;11.87;7.67;;;12.00;99.90;;;;;;4946257;28;20669;-68
2022/11/15 04:48:40;;;;;;;9.57;7.47;;;12.00;99.90;;;;;;4948209;28;20203;-68
2022/11/15 04:51:05;;;;;;;11.00;7.77;;;12.00;99.90;;;;;;4946551;28;20222;-67
2022/11/15 04:53:31;;;;;;;9.90;8.20;;;12.00;99.90;;;;;;4944528;28;20194;-67
2022/11/15 04:55:56;;;;;;;12.67;10.20;;;12.00;99.90;;;;;;4947246;28;20195;-67
2022/11/15 04:58:22;;;;;;;12.30;9.60;;;12.00;99.90;;;;;;4940713;28;20198;-69
2022/11/15 05:00:48;;;;;;;11.40;9.07;;;12.00;99.90;;;;;;4946058;28;20618;-67
2022/11/15 05:05:58;;;;;;;12.07;9.20;;;12.00;99.90;;;;;;4943986;28;20203;-68
2022/11/15 05:08:24;;;;;;;13.80;9.73;;;12.00;99.90;;;;;;4948146;28;20418;-68
2022/11/15 05:10:50;;;;;;;10.50;8.67;;;12.00;99.90;;;;;;4952005;28;20556;-67
2022/11/15 05:13:16;;;;;;;9.03;7.67;;;12.00;99.90;;;;;;4949882;28;20225;-67
2022/11/15 05:15:41;;;;;;;9.10;7.80;;;12.00;99.90;;;;;;4946779;28;20201;-69
2022/11/15 05:18:13;;;;;;;9.60;7.33;;;12.00;99.90;;;;;;4944756;28;20184;-67
2022/11/15 05:20:39;;;;;;;9.40;7.70;;;12.00;99.90;;;;;;4946935;28;20683;-67
2022/11/15 05:23:05;;;;;;;10.33;7.73;;;12.00;99.90;;;;;;4946474;28;20423;-67
2022/11/15 05:25:31;;;;;;;11.40;7.13;;;12.00;99.90;;;;;;4948659;28;20239;-67
2022/11/15 05:27:57;;;;;;;8.13;7.00;;;12.00;99.90;;;;;;4946781;28;20187;-68
2022/11/15 05:30:22;;;;;;;11.10;7.43;;;12.00;99.90;;;;;;4946456;28;20423;-67
2022/11/15 05:32:48;;;;;;;7.67;6.87;;;12.00;99.90;;;;;;4948056;28;20531;-67
2022/11/15 05:35:45;;;;;;;10.07;7.73;;;12.00;99.90;;;;;;4950098;28;20236;-67
2022/11/15 05:38:10;;;;;;;10.90;7.00;;;12.00;99.90;;;;;;4947998;28;20551;-68
2022/11/15 05:40:36;;;;;;;10.30;6.40;;;11.90;99.90;;;;;;4948088;28;20470;-67
2022/11/15 05:43:04;;;;;;;10.83;7.60;;;11.90;99.90;;;;;;4949124;28;20619;-66
2022/11/15 05:45:31;;;;;;;9.67;6.97;;;11.90;99.90;;;;;;4945679;28;20269;-69
2022/11/15 05:48:00;;;;;;;8.53;6.77;;;11.90;99.90;;;;;;4949457;28;21052;-70
2022/11/15 05:50:26;;;;;;;8.03;6.40;;;11.90;99.90;;;;;;4946165;28;21024;-69
2022/11/15 05:52:52;;;;;;;10.60;7.67;;;11.90;99.90;;;;;;4947530;28;20451;-69
2022/11/15 05:55:18;;;;;;;11.60;7.10;;;11.90;99.90;;;;;;4948385;28;20829;-71
2022/11/15 05:57:44;;;;;;;10.93;7.03;;;11.90;99.90;;;;;;4946637;28;20700;-67
2022/11/15 06:00:10;;;;;;;13.83;7.90;;;11.90;99.90;;;;;;4951182;28;20477;-69
2022/11/15 06:02:36;;;;;;;8.03;6.90;;;11.90;99.90;;;;;;4946314;28;20468;-69
2022/11/15 06:05:02;;;;;;;8.67;7.03;;;11.90;99.90;;;;;;4944324;28;20785;-67
2022/11/15 06:07:29;;;;;;;9.37;7.30;;;11.90;99.90;;;;;;4950155;28;20215;-68
2022/11/15 06:09:54;;;;;;;12.50;7.00;;;11.80;99.90;;;;;;4948553;28;20199;-68
2022/11/15 06:12:20;;;;;;;8.57;7.67;;;11.80;99.90;;;;;;4945034;28;20467;-68
2022/11/15 06:15:10;;;;;;;9.07;7.00;;;11.80;99.90;;;;;;4947373;28;20192;-70
2022/11/15 06:17:39;;;;;;;8.80;7.00;;;11.80;99.90;;;;;;4944784;28;20466;-69
2022/11/15 06:20:05;;;;;;;8.87;7.30;;;11.80;99.90;;;;;;4945925;28;20469;-67
2022/11/15 06:22:31;;;;;;;7.90;7.03;;;11.80;99.90;;;;;;4941771;28;20450;-67
2022/11/15 06:24:57;;;;;;;11.00;7.27;;;11.80;99.90;;;;;;4946075;28;20443;-69
2022/11/15 06:27:22;;;;;;;9.73;7.43;;;11.80;99.90;;;;;;4946854;28;20434;-69
2022/11/15 06:29:48;;;;;;;8.50;6.67;;;11.80;99.90;;;;;;4943673;28;20337;-69
2022/11/15 06:32:13;;;;;;;9.93;6.93;;;11.80;99.90;;;;;;4946705;28;20237;-68
2022/11/15 06:34:39;;;;;;;11.53;7.40;;;11.80;99.90;;;;;;4939907;28;20192;-68
2022/11/15 06:37:04;;;;;;;9.00;7.30;;;11.80;99.90;;;;;;4948786;28;20680;-67
2022/11/15 06:39:30;;;;;;;10.70;7.20;;;11.80;99.90;;;;;;4940809;28;20694;-66
2022/11/15 06:41:56;;;;;;;13.30;7.63;;;11.80;99.90;;;;;;4948097;28;20238;-67
2022/11/15 06:44:21;;;;;;;12.43;7.60;;;11.80;99.90;;;;;;4949054;28;20325;-69
2022/11/15 06:46:47;;;;;;;9.10;7.67;;;11.80;99.90;;;;;;4946153;28;20195;-68
2022/11/15 06:49:12;;;;;;;9.40;7.43;;;11.80;99.90;;;;;;4948631;28;20182;-68
2022/11/15 06:51:38;;;;;;;9.77;7.30;;;11.90;99.90;;;;;;4945937;28;20209;-68
2022/11/15 06:54:03;;;;;;;9.93;7.07;;;11.90;99.90;;;;;;4947760;28;20183;-68
2022/11/15 06:56:29;;;;;;;8.43;6.87;;;11.90;99.90;;;;;;4944796;28;20567;-68
2022/11/15 06:58:55;;;;;;;10.00;8.20;;;11.90;99.90;;;;;;4947127;28;20179;-67
2022/11/15 07:01:21;;;;;;;9.17;7.60;;;11.90;99.90;;;;;;4944349;28;20218;-69
2022/11/15 07:03:46;;;;;;;10.80;7.63;;;11.90;99.90;;;;;;4949612;28;20453;-67
2022/11/15 07:06:12;;;;;;;12.27;9.00;;;11.90;99.90;;;;;;4949766;28;20187;-69
2022/11/15 07:08:37;;;;;;;12.10;9.87;;;12.00;99.90;;;;;;4947767;28;20640;-69
2022/11/15 07:11:06;;;;;;;11.20;8.00;;;12.00;99.90;;;;;;4946495;28;20764;-69
2022/11/15 07:13:32;;;;;;;12.23;8.03;;;12.00;99.90;;;;;;4946658;28;20183;-67
2022/11/15 07:16:01;;;;;;;13.40;8.57;;;12.00;99.90;;;;;;4943225;28;21022;-67
2022/11/15 07:18:27;;;;;;;9.13;8.13;;;12.00;99.90;;;;;;4946657;28;20872;-68
2022/11/15 07:20:52;;;;;;;10.47;8.80;;;12.00;99.90;;;;;;4947151;28;20618;-67
2022/11/15 07:23:18;;;;;;;11.47;8.27;;;12.00;99.90;;;;;;4943907;28;20190;-68
2022/11/15 07:25:43;;;;;;;25.13;17.40;;;12.10;99.90;;;;;;4948490;28;20214;-69
2022/11/15 07:28:09;;;;;;;16.10;11.30;;;12.10;99.90;;;;;;4945990;28;20187;-69
2022/11/15 07:30:35;;;;;;;15.50;8.80;;;12.10;99.90;;;;;;4947656;28;20210;-69
2022/11/15 07:33:01;;;;;;;15.23;7.60;;;12.10;99.90;;;;;;4946834;28;20244;-69
2022/11/15 07:35:27;;;;;;;13.67;9.30;;;12.10;99.90;;;;;;4941471;28;20202;-69
2022/11/15 07:38:02;;;;;;;9.00;8.07;;;12.10;99.90;;;;;;4946019;28;20423;-67
2022/11/15 07:40:29;;;;;;;13.27;7.53;;;12.10;99.90;;;;;;4945653;28;20494;-67
2022/11/15 07:43:05;;;;;;;10.40;8.70;;;12.20;99.90;;;;;;4943692;28;20435;-68
2022/11/15 07:45:33;;;;;;;9.47;7.70;;;12.20;99.90;;;;;;4948562;28;20776;-69
2022/11/15 07:47:59;;;;;;;12.90;8.40;;;12.20;99.90;;;;;;4946856;28;20576;-67
2022/11/15 07:50:25;;;;;;;12.50;8.13;;;12.20;99.90;;;;;;4945318;28;20588;-67
2022/11/15 07:52:55;;;;;;;16.60;7.37;;;12.30;99.90;;;;;;4949003;28;20460;-68
2022/11/15 07:55:21;;;;;;;12.50;8.13;;;12.30;99.90;;;;;;4945200;28;20187;-69
2022/11/15 07:57:46;;;;;;;12.93;7.37;;;12.30;99.90;;;;;;4944900;28;20457;-69
2022/11/15 08:00:15;;;;;;;19.70;8.00;;;12.30;99.90;;;;;;4947383;28;20462;-69
2022/11/15 08:02:41;;;;;;;12.43;7.90;;;12.30;99.90;;;;;;4947351;28;20206;-68
2022/11/15 08:05:07;;;;;;;16.70;6.90;;;12.30;99.90;;;;;;4947888;28;20794;-69
2022/11/15 08:07:33;;;;;;;12.00;7.60;;;12.40;99.90;;;;;;4944591;28;20466;-68
2022/11/15 08:09:58;;;;;;;11.40;8.10;;;12.40;99.90;;;;;;4946585;28;20439;-67
2022/11/15 08:12:24;;;;;;;27.47;15.90;;;12.40;99.90;;;;;;4947144;28;20215;-68
2022/11/15 08:14:50;;;;;;;23.90;13.73;;;12.50;99.90;;;;;;4950754;28;20198;-68
2022/11/15 08:17:15;;;;;;;22.27;12.97;;;12.50;99.90;;;;;;4943214;28;20187;-67
2022/11/15 08:19:41;;;;;;;16.60;9.97;;;12.60;99.90;;;;;;4945996;28;20295;-66
2022/11/15 08:22:07;;;;;;;17.50;10.17;;;12.60;99.90;;;;;;4944649;28;20212;-69
2022/11/15 08:24:33;;;;;;;12.70;8.53;;;12.60;99.90;;;;;;4944922;28;20566;-69
2022/11/15 08:26:59;;;;;;;9.40;7.40;;;12.70;99.90;;;;;;4944589;28;20429;-67
2022/11/15 08:29:26;;;;;;;9.80;7.07;;;12.70;99.90;;;;;;4946395;28;20794;-69
2022/11/15 08:31:54;;;;;;;8.13;6.70;;;12.70;99.90;;;;;;4941467;28;20473;-68
2022/11/15 08:34:19;;;;;;;16.03;7.50;;;12.80;99.90;;;;;;4946304;28;20431;-69
2022/11/15 08:36:45;;;;;;;9.50;6.73;;;12.90;99.90;;;;;;4947096;28;20538;-67
2022/11/15 08:39:12;;;;;;;8.93;7.27;;;13.00;99.90;;;;;;4944021;28;20746;-67
2022/11/15 08:41:38;;;;;;;9.90;7.03;;;13.00;99.90;;;;;;4949204;28;21588;-69
2022/11/15 08:44:04;;;;;;;8.67;6.47;;;13.10;99.90;;;;;;4949524;28;20517;-68
2022/11/15 08:46:29;;;;;;;10.77;7.07;;;13.10;99.90;;;;;;4947979;28;20535;-68
2022/11/15 08:48:55;;;;;;;7.60;6.40;;;13.20;99.90;;;;;;4949207;28;20262;-68
2022/11/15 08:51:20;;;;;;;10.00;6.83;;;13.20;99.90;;;;;;4948870;28;20307;-68
2022/11/15 08:53:46;;;;;;;11.13;6.80;;;13.30;99.90;;;;;;4947805;28;20217;-68
2022/11/15 08:56:14;;;;;;;7.23;6.53;;;13.30;99.90;;;;;;4949421;28;20266;-69
2022/11/15 08:58:39;;;;;;;8.27;5.83;;;13.30;99.90;;;;;;4946201;28;20192;-68
2022/11/15 09:01:05;;;;;;;12.10;7.93;;;13.40;99.90;;;;;;4948913;28;21204;-67
2022/11/15 09:03:31;;;;;;;14.37;8.00;;;13.40;99.90;;;;;;4948941;28;20279;-67
2022/11/15 09:05:59;;;;;;;11.97;8.37;;;13.40;99.90;;;;;;4949852;28;20180;-68
2022/11/15 09:08:26;;;;;;;12.90;9.00;;;13.50;99.90;;;;;;4947866;28;20582;-68
2022/11/15 09:10:52;;;;;;;15.20;10.90;;;13.50;99.90;;;;;;4952936;28;20466;-68
2022/11/15 09:13:17;;;;;;;14.53;8.50;;;13.50;99.90;;;;;;4948614;28;20437;-68
2022/11/15 09:15:43;;;;;;;9.27;6.60;;;13.60;99.90;;;;;;4950969;28;20427;-68
2022/11/15 09:18:08;;;;;;;9.77;6.63;;;13.60;99.90;;;;;;4947305;28;20191;-68
2022/11/15 09:20:34;;;;;;;8.03;6.43;;;13.70;99.90;;;;;;4950441;28;20214;-68
2022/11/15 09:23:04;;;;;;;8.40;6.63;;;13.70;99.90;;;;;;4946551;28;20198;-68
2022/11/15 09:25:30;;;;;;;7.60;5.60;;;13.70;99.90;;;;;;4947575;28;20187;-68
2022/11/15 09:27:56;;;;;;;10.07;6.50;;;13.70;99.90;;;;;;4947768;28;20777;-68
2022/11/15 09:30:24;;;;;;;10.60;6.27;;;13.70;99.90;;;;;;4948747;28;20446;-68
2022/11/15 09:32:49;;;;;;;7.80;6.60;;;13.80;99.90;;;;;;4949112;28;21140;-68
2022/11/15 09:35:15;;;;;;;8.40;7.17;;;13.80;99.90;;;;;;4946574;28;20450;-68
2022/11/15 09:37:41;;;;;;;12.83;7.30;;;13.90;99.90;;;;;;4948763;28;20195;-68
2022/11/15 09:40:11;;;;;;;13.63;11.13;;;14.00;99.90;;;;;;4946655;28;20282;-68
2022/11/15 09:43:11;;;;;;;23.57;16.60;;;14.00;99.90;;;;;;4948322;28;20222;-68
2022/11/15 09:46:03;;;;;;;14.70;11.30;;;14.00;99.90;;;;;;4947267;28;20921;-68
2022/11/15 09:48:37;;;;;;;12.70;8.23;;;14.00;99.90;;;;;;4950980;28;20496;-68
2022/11/15 09:51:04;;;;;;;12.03;8.17;;;14.00;99.90;;;;;;4951991;28;20450;-68
2022/11/15 09:53:40;;;;;;;11.10;8.43;;;14.10;99.90;;;;;;4950080;28;20507;-68
2022/11/15 09:56:19;;;;;;;9.33;6.60;;;14.10;99.90;;;;;;4947761;28;20425;-68
2022/11/15 09:59:06;;;;;;;12.80;6.47;;;14.10;99.90;;;;;;4950555;28;20434;-68
2022/11/15 10:02:02;;;;;;;9.43;6.57;;;14.00;99.90;;;;;;4946604;28;20483;-68
2022/11/15 10:04:28;;;;;;;9.83;6.77;;;14.00;99.90;;;;;;4948619;28;20434;-68
2022/11/15 10:07:03;;;;;;;8.83;7.20;;;14.00;99.90;;;;;;4949203;28;20513;-68
2022/11/15 10:09:58;;;;;;;10.70;6.70;;;14.00;99.90;;;;;;4943292;28;21121;-67
2022/11/15 10:12:25;;;;;;;11.63;6.30;;;14.10;99.90;;;;;;4950170;28;20542;-69
2022/11/15 10:15:02;;;;;;;11.83;7.17;;;14.00;99.90;;;;;;4951693;28;20424;-68
2022/11/15 10:17:40;;;;;;;12.50;6.70;;;14.00;99.90;;;;;;4945952;28;20484;-68
2022/11/15 10:20:22;;;;;;;9.83;8.30;;;14.00;99.90;;;;;;4946740;28;20548;-68
2022/11/15 10:22:51;;;;;;;6.73;5.90;;;14.10;99.90;;;;;;4945599;28;20839;-68
2022/11/15 10:25:38;;;;;;;16.13;7.60;;;14.00;99.90;;;;;;4947199;28;20442;-68
2022/11/15 10:28:14;;;;;;;11.07;8.03;;;14.00;99.90;;;;;;4951476;28;20897;-67
2022/11/15 10:30:42;;;;;;;15.73;6.27;;;14.10;99.90;;;;;;4942337;28;20531;-67
2022/11/15 10:33:21;;;;;;;14.07;8.00;;;14.10;99.90;;;;;;4946172;28;20427;-68
2022/11/15 10:35:47;;;;;;;11.67;8.27;;;14.10;99.90;;;;;;4942302;28;20458;-67
2022/11/15 10:38:13;;;;;;;10.53;7.60;;;14.10;99.90;;;;;;4946398;28;20440;-68
2022/11/15 10:40:40;;;;;;;10.47;7.40;;;14.10;99.90;;;;;;4946656;28;20210;-68
2022/11/15 10:43:17;;;;;;;13.53;8.00;;;14.10;99.90;;;;;;4947091;28;20479;-68
2022/11/15 10:45:44;;;;;;;10.47;7.37;;;14.10;99.90;;;;;;4945261;28;20443;-68
2022/11/15 10:48:13;;;;;;;16.07;9.33;;;14.20;99.90;;;;;;4947672;28;20427;-68
2022/11/15 10:50:41;;;;;;;11.40;8.13;;;14.20;99.90;;;;;;4944546;28;20456;-68
2022/11/15 10:53:20;;;;;;;12.10;7.83;;;14.20;99.90;;;;;;4944852;28;20946;-67
2022/11/15 10:55:52;;;;;;;11.40;7.90;;;14.30;99.90;;;;;;4949529;28;20814;-68
2022/11/15 10:58:36;;;;;;;12.07;7.00;;;14.30;99.90;;;;;;4943774;28;20441;-67
2022/11/15 11:01:19;;;;;;;15.50;8.47;;;14.40;99.90;;;;;;4948390;28;21002;-68
2022/11/15 11:04:04;;;;;;;26.67;10.40;;;14.50;99.90;;;;;;4953982;28;20476;-67
2022/11/15 11:06:31;;;;;;;11.40;8.87;;;14.60;99.90;;;;;;4943072;28;20442;-67
2022/11/15 11:08:59;;;;;;;15.97;8.73;;;14.60;99.90;;;;;;4948674;28;20453;-67
2022/11/15 11:11:48;;;;;;;9.77;8.10;;;14.70;99.90;;;;;;4945965;28;20517;-66
2022/11/15 11:14:21;;;;;;;12.00;8.43;;;14.80;99.90;;;;;;4949076;28;20852;-69
2022/11/15 11:16:49;;;;;;;15.00;8.07;;;14.80;99.90;;;;;;4943112;28;21151;-66
2022/11/15 11:19:39;;;;;;;15.10;9.00;;;14.80;99.90;;;;;;4949621;28;20518;-66
2022/11/15 11:22:53;;;;;;;15.73;10.10;;;14.90;99.90;;;;;;4946736;28;20898;-67
2022/11/15 11:25:24;;;;;;;12.87;10.23;;;14.90;99.90;;;;;;4942157;28;20442;-68
2022/11/15 11:28:22;;;;;;;14.93;9.90;;;14.90;99.90;;;;;;4943772;28;20430;-68
2022/11/15 11:31:18;;;;;;;15.47;9.70;;;14.90;99.90;;;;;;4952076;28;20494;-67
2022/11/15 11:34:23;;;;;;;13.93;10.00;;;15.00;99.90;;;;;;4944204;28;20451;-68
2022/11/15 11:36:56;;;;;;;17.40;9.27;;;15.00;99.90;;;;;;4946163;28;20424;-68
2022/11/15 11:39:50;;;;;;;15.93;9.87;;;15.10;99.90;;;;;;4959356;28;20426;-67
2022/11/15 11:42:30;;;;;;;14.30;8.47;;;15.10;99.90;;;;;;4949758;28;20465;-67
2022/11/15 11:45:01;;;;;;;14.63;8.87;;;15.20;99.90;;;;;;4944071;28;20855;-67
2022/11/15 11:47:35;;;;;;;15.23;7.77;;;15.30;99.90;;;;;;4943763;28;20428;-66
2022/11/15 11:50:10;;;;;;;18.80;7.83;;;15.30;99.90;;;;;;4947768;28;20431;-67
2022/11/15 11:53:00;;;;;;;9.20;7.70;;;15.30;99.90;;;;;;4946086;28;20548;-68
2022/11/15 11:55:43;;;;;;;8.37;6.67;;;15.40;99.90;;;;;;4943265;28;20462;-67
2022/11/15 11:58:36;;;;;;;7.90;6.37;;;15.30;99.90;;;;;;4941099;28;20435;-67
2022/11/15 12:01:07;;;;;;;8.33;6.33;;;15.30;99.90;;;;;;4945247;28;20473;-68
2022/11/15 12:03:55;;;;;;;11.27;6.53;;;15.30;99.90;;;;;;4941919;28;20415;-68
2022/11/15 12:06:32;;;;;;;9.50;7.57;;;15.30;99.90;;;;;;4945217;28;20438;-68
2022/11/15 12:09:17;;;;;;;14.00;7.80;;;15.30;99.90;;;;;;4945231;28;20419;-67
2022/11/15 12:12:13;;;;;;;15.70;9.10;;;15.30;99.90;;;;;;4955545;28;20533;-67
2022/11/15 12:15:09;;;;;;;11.33;7.90;;;15.30;99.90;;;;;;4942910;28;20453;-67
2022/11/15 12:17:35;;;;;;;13.83;7.47;;;15.30;99.90;;;;;;4949995;28;20866;-67
2022/11/15 12:20:18;;;;;;;9.43;7.87;;;15.30;99.90;;;;;;4948049;28;20531;-67
2022/11/15 12:22:55;;;;;;;8.77;7.23;;;15.30;99.90;;;;;;4950029;28;20532;-67
2022/11/15 12:25:23;;;;;;;10.20;6.57;;;15.30;99.90;;;;;;4949793;28;20434;-67
2022/11/15 12:27:55;;;;;;;7.90;6.80;;;15.30;99.90;;;;;;4952948;28;20801;-68
2022/11/15 12:30:23;;;;;;;9.13;6.23;;;15.40;99.90;;;;;;4946989;28;20446;-67
2022/11/15 12:32:51;;;;;;;9.97;7.63;;;15.50;99.90;;;;;;4953176;28;20775;-67
2022/11/15 12:35:39;;;;;;;9.80;6.13;;;15.80;99.90;;;;;;4952321;28;20533;-67
2022/11/15 12:38:10;;;;;;;8.90;6.40;;;16.10;99.90;;;;;;4951116;28;20898;-67
2022/11/15 12:41:15;;;;;;;8.57;7.20;;;16.30;99.90;;;;;;4954470;28;20815;-67
2022/11/15 12:43:42;;;;;;;9.87;6.57;;;16.50;99.90;;;;;;4952784;28;20496;-67
2022/11/15 12:46:13;;;;;;;7.70;6.03;;;16.70;99.90;;;;;;4950855;28;20800;-68
2022/11/15 12:48:39;;;;;;;11.07;6.40;;;16.90;99.90;;;;;;4951418;28;20787;-68
2022/11/15 12:51:05;;;;;;;6.87;5.60;;;16.90;99.90;;;;;;4948802;28;20483;-67
2022/11/15 12:53:32;;;;;;;7.67;6.07;;;17.00;99.90;;;;;;4950314;28;20186;-67
2022/11/15 12:56:04;;;;;;;8.73;6.10;;;16.90;99.90;;;;;;4951579;28;20190;-66
2022/11/15 12:58:43;;;;;;;7.70;5.73;;;16.90;99.90;;;;;;4949505;28;20450;-67
2022/11/15 13:01:30;;;;;;;7.43;6.13;;;16.90;99.90;;;;;;4952939;28;20469;-66
2022/11/15 13:04:18;;;;;;;9.63;6.73;;;16.90;99.90;;;;;;4949005;28;20431;-67
2022/11/15 13:06:50;;;;;;;7.93;5.90;;;16.90;99.90;;;;;;4951905;28;20905;-66
2022/11/15 13:09:34;;;;;;;6.90;5.67;;;16.90;99.90;;;;;;4950832;28;20425;-67
2022/11/15 13:12:07;;;;;;;9.07;6.50;;;17.00;99.90;;;;;;4946241;28;20463;-68
2022/11/15 13:14:41;;;;;;;10.80;7.70;;;17.10;99.90;;;;;;4952294;28;20493;-68